createdAt,value
2022-10-29T00:01:13.428Z,7.20
2022-10-29T00:03:42.949Z,7.50
2022-10-29T00:06:13.333Z,7.90
2022-10-29T00:08:43.139Z,6.50
2022-10-29T00:11:19.584Z,8.30
2022-10-29T00:13:49.447Z,7.80
2022-10-29T00:16:20.279Z,10.00
2022-10-29T00:18:48.352Z,8.10
2022-10-29T00:21:19.420Z,7.80
2022-10-29T00:23:48.293Z,8.20
2022-10-29T00:26:19.681Z,7.30
2022-10-29T00:28:48.854Z,7.20
2022-10-29T00:31:19.071Z,6.10
2022-10-29T00:33:47.114Z,5.60
2022-10-29T00:36:18.315Z,7.10
2022-10-29T00:38:46.045Z,6.60
2022-10-29T00:41:18.124Z,7.60
2022-10-29T00:43:50.214Z,6.30
2022-10-29T00:46:30.810Z,6.90
2022-10-29T00:49:00.142Z,5.70
2022-10-29T00:51:30.373Z,7.70
2022-10-29T00:54:08.151Z,8.40
2022-10-29T00:56:40.701Z,5.40
2022-10-29T00:59:10.304Z,6.00
2022-10-29T01:01:39.284Z,7.50
2022-10-29T01:04:09.897Z,7.00
2022-10-29T01:06:38.784Z,7.00
2022-10-29T01:09:06.512Z,8.60
2022-10-29T01:12:02.016Z,8.20
2022-10-29T01:14:47.355Z,8.00
2022-10-29T01:17:24.492Z,10.40
2022-10-29T01:20:25.558Z,12.70
2022-10-29T01:23:35.933Z,8.40
2022-10-29T01:26:48.138Z,7.30
2022-10-29T01:29:39.135Z,8.70
2022-10-29T01:32:19.387Z,6.30
2022-10-29T01:35:00.504Z,6.90
2022-10-29T01:37:49.635Z,4.60
2022-10-29T01:40:50.093Z,9.10
2022-10-29T01:43:30.264Z,11.50
2022-10-29T01:46:11.645Z,6.30
2022-10-29T01:48:45.915Z,8.20
2022-10-29T01:51:34.222Z,6.30
2022-10-29T01:54:08.633Z,7.00
2022-10-29T01:56:36.907Z,8.80
2022-10-29T01:59:18.201Z,6.70
2022-10-29T02:02:03.004Z,8.00
2022-10-29T02:04:54.299Z,8.10
2022-10-29T02:08:01.252Z,8.00
2022-10-29T02:10:40.779Z,7.90
2022-10-29T02:13:11.335Z,8.20
2022-10-29T02:15:48.312Z,9.20
2022-10-29T02:18:18.043Z,8.90
2022-10-29T02:20:46.793Z,9.00
2022-10-29T02:23:16.614Z,8.20
2022-10-29T02:25:44.805Z,12.50
2022-10-29T02:28:13.858Z,9.40
2022-10-29T02:30:41.813Z,11.30
2022-10-29T02:33:09.632Z,7.60
2022-10-29T02:35:37.748Z,7.60
2022-10-29T02:38:05.438Z,8.70
2022-10-29T02:40:33.131Z,9.90
2022-10-29T02:43:00.911Z,7.00
2022-10-29T02:45:28.671Z,8.90
2022-10-29T02:47:56.582Z,8.90
2022-10-29T02:50:25.184Z,8.70
2022-10-29T02:52:52.980Z,7.70
2022-10-29T02:55:20.741Z,8.60
2022-10-29T02:57:48.522Z,6.20
2022-10-29T03:00:16.414Z,7.00
2022-10-29T03:02:44.423Z,9.80
2022-10-29T03:05:12.207Z,10.60
2022-10-29T03:07:40.000Z,8.90
2022-10-29T03:10:08.251Z,8.00
2022-10-29T03:12:36.099Z,11.60
2022-10-29T03:15:06.070Z,9.10
2022-10-29T03:17:33.765Z,7.10
2022-10-29T03:20:01.654Z,9.00
2022-10-29T03:22:29.417Z,7.40
2022-10-29T03:24:57.138Z,7.30
2022-10-29T03:27:24.846Z,10.00
2022-10-29T03:29:52.972Z,12.00
2022-10-29T03:32:20.722Z,9.00
2022-10-29T03:34:49.166Z,7.60
2022-10-29T03:37:16.875Z,9.00
2022-10-29T03:39:44.961Z,5.90
2022-10-29T03:42:14.061Z,6.40
2022-10-29T03:44:41.884Z,9.60
2022-10-29T03:47:09.610Z,12.10
2022-10-29T03:49:37.397Z,8.70
2022-10-29T03:52:05.647Z,9.00
2022-10-29T03:54:33.438Z,7.20
2022-10-29T03:57:01.200Z,11.30
2022-10-29T03:59:29.322Z,8.30
2022-10-29T04:01:57.580Z,8.20
2022-10-29T04:04:26.253Z,8.60
2022-10-29T04:06:54.154Z,8.40
2022-10-29T04:09:22.490Z,7.90
2022-10-29T04:11:50.198Z,8.50
2022-10-29T04:14:17.874Z,6.80
2022-10-29T04:16:45.621Z,7.70
2022-10-29T04:19:13.592Z,7.90
2022-10-29T04:30:05.785Z,9.40
2022-10-29T04:32:33.788Z,8.20
2022-10-29T04:35:01.547Z,8.20
2022-10-29T04:37:29.981Z,8.60
2022-10-29T04:39:57.744Z,9.60
2022-10-29T04:42:25.479Z,8.20
2022-10-29T04:44:53.590Z,8.50
2022-10-29T04:47:21.372Z,7.50
2022-10-29T04:49:49.065Z,10.40
2022-10-29T04:52:16.831Z,10.90
2022-10-29T04:54:44.989Z,10.20
2022-10-29T04:57:12.728Z,11.80
2022-10-29T04:59:40.909Z,10.80
2022-10-29T05:02:09.933Z,10.60
2022-10-29T05:04:37.747Z,8.90
2022-10-29T05:07:05.862Z,9.00
2022-10-29T05:09:33.587Z,8.80
2022-10-29T05:12:07.196Z,7.50
2022-10-29T05:14:35.269Z,6.60
2022-10-29T05:17:03.554Z,10.30
2022-10-29T05:19:31.482Z,14.30
2022-10-29T05:21:59.499Z,9.70
2022-10-29T05:24:27.454Z,11.20
2022-10-29T05:26:55.197Z,11.70
2022-10-29T05:29:23.343Z,8.10
2022-10-29T05:31:54.660Z,12.60
2022-10-29T05:34:23.992Z,13.90
2022-10-29T05:36:52.606Z,16.10
2022-10-29T05:39:20.841Z,10.30
2022-10-29T05:41:49.808Z,8.20
2022-10-29T05:44:17.941Z,9.50
2022-10-29T05:46:49.532Z,10.80
2022-10-29T05:49:18.546Z,10.40
2022-10-29T05:51:46.592Z,11.90
2022-10-29T05:54:14.359Z,12.90
2022-10-29T05:56:42.167Z,13.70
2022-10-29T05:59:09.926Z,9.30
2022-10-29T06:01:37.846Z,10.60
2022-10-29T06:04:05.759Z,10.90
2022-10-29T06:06:34.246Z,11.80
2022-10-29T06:09:03.017Z,11.60
2022-10-29T06:11:31.253Z,14.60
2022-10-29T06:13:58.996Z,10.30
2022-10-29T06:16:26.771Z,14.20
2022-10-29T06:18:54.595Z,16.70
2022-10-29T06:21:22.441Z,13.20
2022-10-29T06:23:54.183Z,11.80
2022-10-29T06:26:22.910Z,8.00
2022-10-29T06:28:50.920Z,9.40
2022-10-29T06:31:18.658Z,11.00
2022-10-29T06:33:46.540Z,14.70
2022-10-29T06:36:14.510Z,16.40
2022-10-29T06:38:42.511Z,15.80
2022-10-29T06:41:10.476Z,14.70
2022-10-29T06:43:38.644Z,11.70
2022-10-29T06:46:07.127Z,12.90
2022-10-29T06:48:34.915Z,22.10
2022-10-29T06:51:04.193Z,11.50
2022-10-29T06:53:31.982Z,14.80
2022-10-29T06:56:00.109Z,13.50
2022-10-29T06:58:27.899Z,11.70
2022-10-29T07:00:55.768Z,17.60
2022-10-29T07:03:23.656Z,12.20
2022-10-29T07:06:00.161Z,13.80
2022-10-29T07:08:29.149Z,9.80
2022-10-29T07:10:57.107Z,14.00
2022-10-29T07:13:25.288Z,16.90
2022-10-29T07:15:53.118Z,12.50
2022-10-29T07:18:20.998Z,12.20
2022-10-29T07:20:48.748Z,14.90
2022-10-29T07:23:16.641Z,12.10
2022-10-29T07:25:44.392Z,12.90
2022-10-29T07:28:20.903Z,13.30
2022-10-29T07:30:50.612Z,11.80
2022-10-29T07:33:18.988Z,10.80
2022-10-29T07:35:47.457Z,11.50
2022-10-29T07:38:15.228Z,13.80
2022-10-29T07:40:50.205Z,11.00
2022-10-29T07:43:20.856Z,14.10
2022-10-29T07:45:50.873Z,10.60
2022-10-29T07:48:20.494Z,11.90
2022-10-29T07:50:50.401Z,12.30
2022-10-29T07:53:22.629Z,13.90
2022-10-29T07:56:04.290Z,23.00
2022-10-29T07:58:37.104Z,16.10
2022-10-29T08:01:07.263Z,13.20
2022-10-29T08:03:35.157Z,14.20
2022-10-29T08:06:03.498Z,11.70
2022-10-29T08:08:31.279Z,9.00
2022-10-29T08:11:01.810Z,13.80
2022-10-29T08:13:31.523Z,8.70
2022-10-29T08:16:00.100Z,9.70
2022-10-29T08:18:29.134Z,12.70
2022-10-29T08:20:57.558Z,19.70
2022-10-29T08:23:25.313Z,12.70
2022-10-29T08:25:52.991Z,12.90
2022-10-29T08:28:23.995Z,8.70
2022-10-29T08:30:53.270Z,10.20
2022-10-29T08:33:21.802Z,11.00
2022-10-29T08:35:49.985Z,9.80
2022-10-29T08:38:17.727Z,7.90
2022-10-29T08:41:01.874Z,5.50
2022-10-29T08:43:36.538Z,16.70
2022-10-29T08:46:04.776Z,7.20
2022-10-29T08:48:44.597Z,8.60
2022-10-29T08:51:30.950Z,10.10
2022-10-29T08:56:54.088Z,14.10
2022-10-29T08:59:26.198Z,9.20
2022-10-29T09:01:54.282Z,9.20
2022-10-29T09:04:25.695Z,9.20
2022-10-29T09:07:18.805Z,10.40
2022-10-29T09:10:43.438Z,8.40
2022-10-29T09:13:33.074Z,12.20
2022-10-29T09:16:06.119Z,14.30
2022-10-29T09:19:06.374Z,8.70
2022-10-29T09:21:40.176Z,5.80
2022-10-29T09:24:43.846Z,9.90
2022-10-29T09:27:20.337Z,9.50
2022-10-29T09:30:18.933Z,8.80
2022-10-29T09:33:18.752Z,7.60
2022-10-29T09:35:59.726Z,6.40
2022-10-29T09:38:34.693Z,8.40
2022-10-29T09:41:04.160Z,9.20
2022-10-29T09:43:39.202Z,6.70
2022-10-29T09:46:34.858Z,7.50
2022-10-29T09:49:31.482Z,6.20
2022-10-29T09:52:08.002Z,9.70
2022-10-29T09:54:37.666Z,8.70
2022-10-29T09:57:11.233Z,6.90
2022-10-29T09:59:43.846Z,9.30
2022-10-29T10:02:38.963Z,8.10
2022-10-29T10:05:23.967Z,8.00
2022-10-29T10:08:07.395Z,9.70
2022-10-29T10:10:49.902Z,7.40
2022-10-29T10:13:21.789Z,15.60
2022-10-29T10:15:57.968Z,9.00
2022-10-29T10:18:52.137Z,13.80
2022-10-29T10:21:32.189Z,6.90
2022-10-29T10:24:01.617Z,9.00
2022-10-29T10:26:32.606Z,6.90
2022-10-29T10:29:16.088Z,6.70
2022-10-29T10:31:59.144Z,8.20
2022-10-29T10:34:39.533Z,15.80
2022-10-29T10:37:21.042Z,45.20
2022-10-29T10:39:55.855Z,30.80
2022-10-29T10:42:26.706Z,43.20
2022-10-29T10:45:24.157Z,36.70
2022-10-29T10:47:59.224Z,24.70
2022-10-29T10:50:36.120Z,18.60
2022-10-29T10:53:17.639Z,16.40
2022-10-29T10:56:03.911Z,18.70
2022-10-29T10:58:40.766Z,17.70
2022-10-29T11:01:44.189Z,9.80
2022-10-29T11:04:21.813Z,12.10
2022-10-29T11:06:52.165Z,10.80
2022-10-29T11:09:40.122Z,10.00
2022-10-29T11:12:30.818Z,13.50
2022-10-29T11:15:19.973Z,12.50
2022-10-29T11:18:00.848Z,10.20
2022-10-29T11:20:36.427Z,8.50
2022-10-29T11:23:29.416Z,9.30
2022-10-29T11:26:08.262Z,9.30
2022-10-29T11:28:44.615Z,9.70
2022-10-29T11:31:32.272Z,9.20
2022-10-29T11:34:14.223Z,10.40
2022-10-29T11:37:20.919Z,10.30
2022-10-29T11:40:02.048Z,14.30
2022-10-29T11:42:31.172Z,12.80
2022-10-29T11:45:00.117Z,9.70
2022-10-29T11:47:49.336Z,8.70
2022-10-29T11:50:51.144Z,6.60
2022-10-29T11:53:46.269Z,7.80
2022-10-29T11:56:18.698Z,8.50
2022-10-29T11:59:05.796Z,10.70
2022-10-29T12:01:45.995Z,8.00
2022-10-29T12:04:32.760Z,13.30
2022-10-29T12:07:38.241Z,10.10
2022-10-29T12:10:27.958Z,18.60
2022-10-29T12:13:27.441Z,8.30
2022-10-29T12:16:34.036Z,12.70
2022-10-29T12:19:17.500Z,9.70
2022-10-29T12:22:02.229Z,11.60
2022-10-29T12:24:46.244Z,10.90
2022-10-29T12:27:29.438Z,18.50
2022-10-29T12:30:31.475Z,10.50
2022-10-29T12:33:27.430Z,14.40
2022-10-29T12:36:08.485Z,9.50
2022-10-29T12:38:48.867Z,11.30
2022-10-29T12:41:41.488Z,9.50
2022-10-29T12:44:48.234Z,8.90
2022-10-29T12:47:26.351Z,13.70
2022-10-29T12:50:24.428Z,12.10
2022-10-29T12:53:10.111Z,14.60
2022-10-29T12:55:40.138Z,8.60
2022-10-29T12:58:45.896Z,8.80
2022-10-29T13:01:38.434Z,10.60
2022-10-29T13:04:34.367Z,11.00
2022-10-29T13:10:24.785Z,11.90
2022-10-29T13:12:59.473Z,8.90
2022-10-29T13:15:36.016Z,10.30
2022-10-29T13:18:41.733Z,14.40
2022-10-29T13:21:11.235Z,13.20
2022-10-29T13:23:41.384Z,11.20
2022-10-29T13:26:10.133Z,9.40
2022-10-29T13:28:37.806Z,8.00
2022-10-29T13:31:08.884Z,6.90
2022-10-29T13:33:40.034Z,8.10
2022-10-29T13:36:20.059Z,9.30
2022-10-29T13:39:04.839Z,9.10
2022-10-29T13:41:49.456Z,10.20
2022-10-29T13:44:23.899Z,11.20
2022-10-29T13:47:29.506Z,10.80
2022-10-29T13:49:58.468Z,13.70
2022-10-29T13:52:28.185Z,11.90
2022-10-29T13:55:09.705Z,16.50
2022-10-29T13:57:50.919Z,19.90
2022-10-29T14:00:21.373Z,20.30
2022-10-29T14:03:15.124Z,22.20
2022-10-29T14:05:53.014Z,16.80
2022-10-29T14:08:50.781Z,21.30
2022-10-29T14:11:26.335Z,14.90
2022-10-29T14:14:01.102Z,15.70
2022-10-29T14:16:34.032Z,12.70
2022-10-29T14:19:19.379Z,10.10
2022-10-29T14:21:48.404Z,12.60
2022-10-29T14:24:17.117Z,12.30
2022-10-29T14:26:45.607Z,12.40
2022-10-29T14:29:21.165Z,12.10
2022-10-29T14:32:08.520Z,12.20
2022-10-29T14:34:36.354Z,14.70
2022-10-29T14:37:28.765Z,15.70
2022-10-29T14:40:03.134Z,22.20
2022-10-29T14:42:34.810Z,24.30
2022-10-29T14:45:07.498Z,22.80
2022-10-29T14:47:37.564Z,22.80
2022-10-29T14:50:15.634Z,18.40
2022-10-29T14:52:51.124Z,21.10
2022-10-29T14:55:27.336Z,17.70
2022-10-29T14:58:07.585Z,20.80
2022-10-29T15:00:37.271Z,22.30
2022-10-29T15:03:07.814Z,21.20
2022-10-29T15:05:37.748Z,19.70
2022-10-29T15:08:11.885Z,30.10
2022-10-29T15:10:54.512Z,30.00
2022-10-29T15:13:34.529Z,36.70
2022-10-29T15:16:07.453Z,35.70
2022-10-29T15:18:37.734Z,36.10
2022-10-29T15:21:06.382Z,35.50
2022-10-29T15:23:41.287Z,23.90
2022-10-29T15:26:21.024Z,28.50
2022-10-29T15:28:53.614Z,31.20
2022-10-29T15:31:42.843Z,26.20
2022-10-29T15:34:28.594Z,28.80
2022-10-29T15:36:58.162Z,28.20
2022-10-29T15:39:29.527Z,28.60
2022-10-29T15:42:01.078Z,28.90
2022-10-29T15:44:38.229Z,28.70
2022-10-29T15:47:22.444Z,27.00
2022-10-29T15:49:51.172Z,26.40
2022-10-29T15:52:21.834Z,39.30
2022-10-29T15:54:49.648Z,41.90
2022-10-29T15:57:19.117Z,54.00
2022-10-29T15:59:46.840Z,50.70
2022-10-29T16:02:17.918Z,37.60
2022-10-29T16:04:53.366Z,34.40
2022-10-29T16:07:22.619Z,30.70
2022-10-29T16:09:53.768Z,31.20
2022-10-29T16:12:21.934Z,31.40
2022-10-29T16:14:52.774Z,33.90
2022-10-29T16:17:21.667Z,30.50
2022-10-29T16:19:50.626Z,31.20
2022-10-29T16:22:29.778Z,31.00
2022-10-29T16:24:58.704Z,56.20
2022-10-29T16:27:26.753Z,58.60
2022-10-29T16:29:54.746Z,75.90
2022-10-29T16:32:24.106Z,56.10
2022-10-29T16:34:53.254Z,42.00
2022-10-29T16:37:21.794Z,46.10
2022-10-29T16:39:50.252Z,47.30
2022-10-29T16:42:30.019Z,47.90
2022-10-29T16:44:57.992Z,47.70
2022-10-29T16:47:25.980Z,46.60
2022-10-29T16:49:54.344Z,46.50
2022-10-29T16:52:24.153Z,35.70
2022-10-29T16:54:54.735Z,29.40
2022-10-29T16:57:23.883Z,28.70
2022-10-29T16:59:52.138Z,32.00
2022-10-29T17:02:19.980Z,30.60
2022-10-29T17:04:49.444Z,30.20
2022-10-29T17:07:18.819Z,38.00
2022-10-29T17:09:46.569Z,27.60
2022-10-29T17:12:15.153Z,28.60
2022-10-29T17:14:42.900Z,31.90
2022-10-29T17:17:10.931Z,33.80
2022-10-29T17:19:38.728Z,38.60
2022-10-29T17:22:10.677Z,31.80
2022-10-29T17:24:38.604Z,29.60
2022-10-29T17:27:06.356Z,27.20
2022-10-29T17:29:36.455Z,29.10
2022-10-29T17:32:06.983Z,25.30
2022-10-29T17:34:37.143Z,34.40
2022-10-29T17:37:04.907Z,30.40
2022-10-29T17:39:32.775Z,26.70
2022-10-29T17:42:02.601Z,21.90
2022-10-29T17:44:40.567Z,22.30
2022-10-29T17:47:13.177Z,18.90
2022-10-29T17:49:41.430Z,23.60
2022-10-29T17:52:09.655Z,25.10
2022-10-29T17:54:37.975Z,21.70
2022-10-29T17:57:05.793Z,19.20
2022-10-29T17:59:34.759Z,20.40
2022-10-29T18:02:03.170Z,23.70
2022-10-29T18:04:31.082Z,20.50
2022-10-29T18:06:59.160Z,23.30
2022-10-29T18:09:28.631Z,23.40
2022-10-29T18:11:56.762Z,26.90
2022-10-29T18:14:26.398Z,28.90
2022-10-29T18:16:54.278Z,23.00
2022-10-29T18:19:22.378Z,24.00
2022-10-29T18:21:50.596Z,20.90
2022-10-29T18:24:19.562Z,23.80
2022-10-29T18:26:51.388Z,19.80
2022-10-29T18:29:19.138Z,19.70
2022-10-29T18:31:47.039Z,22.40
2022-10-29T18:34:18.238Z,21.20
2022-10-29T18:36:47.644Z,23.20
2022-10-29T18:39:15.852Z,23.10
2022-10-29T18:41:43.973Z,26.30
2022-10-29T18:44:11.771Z,23.90
2022-10-29T18:46:40.127Z,27.40
2022-10-29T18:49:12.074Z,29.20
2022-10-29T18:51:40.357Z,22.30
2022-10-29T18:54:11.417Z,24.30
2022-10-29T18:56:39.411Z,17.90
2022-10-29T18:59:09.524Z,19.90
2022-10-29T19:01:39.920Z,18.10
2022-10-29T19:04:12.993Z,18.40
2022-10-29T19:06:40.804Z,18.60
2022-10-29T19:09:11.827Z,19.20
2022-10-29T19:11:41.067Z,12.60
2022-10-29T19:14:13.180Z,15.10
2022-10-29T19:16:41.523Z,12.40
2022-10-29T19:19:12.782Z,15.80
2022-10-29T19:21:42.653Z,13.90
2022-10-29T19:24:16.175Z,11.00
2022-10-29T19:26:44.210Z,11.80
2022-10-29T19:29:14.294Z,20.20
2022-10-29T19:31:45.022Z,14.80
2022-10-29T19:34:12.831Z,14.30
2022-10-29T19:36:40.734Z,16.20
2022-10-29T19:39:08.972Z,13.40
2022-10-29T19:41:37.122Z,13.50
2022-10-29T19:44:05.167Z,16.60
2022-10-29T19:46:33.356Z,18.60
2022-10-29T19:49:01.423Z,15.10
2022-10-29T19:51:29.723Z,21.50
2022-10-29T19:53:58.799Z,16.10
2022-10-29T19:56:26.932Z,14.80
2022-10-29T19:58:55.100Z,16.20
2022-10-29T20:01:23.668Z,15.10
2022-10-29T20:03:52.773Z,14.00
2022-10-29T20:06:21.523Z,14.90
2022-10-29T20:08:52.452Z,12.00
2022-10-29T20:11:21.788Z,12.60
2022-10-29T20:13:49.542Z,10.50
2022-10-29T20:16:20.337Z,9.70
2022-10-29T20:18:49.841Z,13.60
2022-10-29T20:21:18.377Z,12.60
2022-10-29T20:23:46.410Z,11.50
2022-10-29T20:26:14.652Z,14.60
2022-10-29T20:28:43.468Z,13.20
2022-10-29T20:31:29.743Z,15.30
2022-10-29T20:33:59.946Z,10.40
2022-10-29T20:36:30.753Z,8.80
2022-10-29T20:38:58.926Z,11.20
2022-10-29T20:41:26.800Z,9.90
2022-10-29T20:44:00.141Z,11.00
2022-10-29T20:46:29.964Z,9.30
2022-10-29T20:48:57.967Z,14.30
2022-10-29T20:51:26.503Z,10.20
2022-10-29T20:54:05.784Z,14.30
2022-10-29T20:56:35.693Z,15.20
2022-10-29T20:59:03.881Z,13.80
2022-10-29T21:01:35.874Z,14.90
2022-10-29T21:04:04.710Z,11.90
2022-10-29T21:06:32.487Z,13.30
2022-10-29T21:09:01.584Z,11.10
2022-10-29T21:11:29.373Z,11.80
2022-10-29T21:13:57.148Z,12.70
2022-10-29T21:16:27.640Z,11.30
2022-10-29T21:18:59.627Z,10.50
2022-10-29T21:21:29.370Z,11.70
2022-10-29T21:23:59.048Z,10.90
2022-10-29T21:26:29.242Z,10.10
2022-10-29T21:28:57.540Z,11.70
2022-10-29T21:31:25.304Z,8.70
2022-10-29T21:33:56.197Z,11.90
2022-10-29T21:36:24.283Z,12.50
2022-10-29T21:38:53.832Z,9.10
2022-10-29T21:41:22.374Z,8.80
2022-10-29T21:43:50.122Z,15.60
2022-10-29T21:46:18.504Z,8.70
2022-10-29T21:48:46.209Z,13.50
2022-10-29T21:51:16.257Z,11.30
2022-10-29T21:53:44.026Z,9.00
2022-10-29T21:56:13.601Z,12.70
2022-10-29T21:58:42.495Z,10.20
2022-10-29T22:01:16.548Z,10.80
2022-10-29T22:03:46.253Z,10.20
2022-10-29T22:06:17.547Z,11.00
2022-10-29T22:08:46.419Z,12.30
2022-10-29T22:11:15.275Z,10.90
2022-10-29T22:13:43.087Z,10.70
2022-10-29T22:16:11.569Z,9.90
2022-10-29T22:18:39.930Z,9.90
2022-10-29T22:21:17.178Z,12.40
2022-10-29T22:23:50.124Z,8.20
2022-10-29T22:26:21.363Z,12.00
2022-10-29T22:28:51.100Z,10.10
2022-10-29T22:31:21.393Z,13.10
2022-10-29T22:33:50.285Z,13.60
2022-10-29T22:36:20.765Z,10.30
2022-10-29T22:39:00.251Z,11.20
2022-10-29T22:41:29.422Z,10.60
2022-10-29T22:43:59.197Z,8.80
2022-10-29T22:46:28.718Z,11.10
2022-10-29T22:48:57.904Z,11.50
2022-10-29T22:51:29.319Z,12.10
2022-10-29T22:53:58.148Z,12.50
2022-10-29T22:56:32.200Z,7.90
2022-10-29T22:59:00.885Z,10.30
2022-10-29T23:01:31.506Z,13.30
2022-10-29T23:04:00.132Z,11.90
2022-10-29T23:06:30.076Z,12.60
2022-10-29T23:09:01.890Z,10.70
2022-10-29T23:11:32.269Z,7.40
2022-10-29T23:14:01.847Z,10.10
2022-10-29T23:16:33.943Z,8.70
2022-10-29T23:19:04.135Z,10.50
2022-10-29T23:21:32.728Z,10.70
2022-10-29T23:24:00.909Z,12.50
2022-10-29T23:26:29.408Z,10.50
2022-10-29T23:28:57.560Z,10.20
2022-10-29T23:31:27.415Z,10.10
2022-10-29T23:33:56.946Z,10.00
2022-10-29T23:36:27.465Z,10.50
2022-10-29T23:39:00.699Z,12.60
2022-10-29T23:41:30.593Z,12.30
2022-10-29T23:43:59.012Z,10.20
2022-10-29T23:46:26.807Z,10.40
2022-10-29T23:48:54.618Z,10.60
2022-10-29T23:51:22.898Z,11.80
2022-10-29T23:53:54.691Z,12.20
2022-10-29T23:56:25.690Z,11.50
2022-10-29T23:58:53.637Z,8.80
